createdAt,value
2015-03-09T07:46:54.601Z,59173
2015-03-09T07:47:05.148Z,57494
2015-03-09T07:47:15.694Z,56110
2015-03-09T07:47:26.194Z,54842
2015-03-09T07:47:36.710Z,53625
2015-03-09T07:47:47.229Z,52385
2015-03-09T07:47:57.776Z,51233
2015-03-09T07:48:08.369Z,50258
2015-03-09T07:48:18.901Z,49548
2015-03-09T07:48:29.447Z,49025
2015-03-09T07:48:39.965Z,48679
2015-03-09T07:48:50.543Z,48509
2015-03-09T07:49:01.059Z,48561
2015-03-09T07:49:11.590Z,48898
2015-03-09T07:49:22.231Z,49586
2015-03-09T07:49:32.809Z,50575
2015-03-09T07:49:43.436Z,51830
2015-03-09T07:49:53.983Z,53406
2015-03-09T07:50:04.498Z,55442
2015-03-09T07:50:15.045Z,57826
2015-03-09T07:50:25.561Z,60240
2015-03-09T07:50:36.076Z,62470
2015-03-09T07:50:46.642Z,64503
2015-03-09T07:50:57.861Z,66308
2015-03-09T07:51:08.392Z,67794
2015-03-09T07:51:18.923Z,69086
2015-03-09T07:51:29.470Z,70024
2015-03-09T07:51:40.144Z,70432
2015-03-09T07:51:50.691Z,70463
2015-03-09T07:52:01.206Z,70273
2015-03-09T07:52:11.722Z,70056
2015-03-09T07:52:22.253Z,69929
2015-03-09T07:52:32.769Z,69937
2015-03-09T07:52:43.319Z,70313
2015-03-09T07:52:53.881Z,70998
2015-03-09T07:53:04.459Z,71834
2015-03-09T07:53:14.991Z,72320
2015-03-09T07:53:25.506Z,72552
2015-03-09T07:54:35.540Z,72861
2015-03-09T07:54:46.120Z,190962
2015-03-09T07:54:56.713Z,192176
2015-03-09T07:55:07.245Z,193472
2015-03-09T07:55:17.807Z,194496
2015-03-09T07:55:28.401Z,194791
2015-03-09T07:55:38.917Z,194541
2015-03-09T07:55:49.451Z,194192
2015-03-09T07:56:00.029Z,193789
2015-03-09T07:56:10.591Z,193075
2015-03-09T07:56:21.154Z,192316
2015-03-09T07:56:31.701Z,192292
2015-03-09T07:56:42.265Z,192795
2015-03-09T07:56:52.843Z,193055
2015-03-09T07:57:03.343Z,192958
2015-03-09T07:57:13.890Z,192727
2015-03-09T07:57:24.531Z,192387
2015-03-09T07:57:35.172Z,192671
2015-03-09T07:57:45.800Z,193707
2015-03-09T07:57:56.409Z,194375
2015-03-09T07:58:06.987Z,194449
2015-03-09T07:58:17.581Z,194366
2015-03-09T07:58:28.128Z,194264
2015-03-09T07:58:38.721Z,193791
2015-03-09T07:58:49.269Z,193096
2015-03-09T07:58:59.894Z,192306
2015-03-09T07:59:10.394Z,191554
2015-03-09T07:59:20.988Z,191066
2015-03-09T07:59:31.566Z,190895
2015-03-09T07:59:42.507Z,191006
2015-03-09T07:59:53.069Z,191336
2015-03-09T08:00:03.710Z,191701
2015-03-09T08:00:14.288Z,191801
2015-03-09T08:00:24.850Z,191176
2015-03-09T08:00:35.413Z,190030
2015-03-09T08:00:45.962Z,188826
2015-03-09T08:00:56.509Z,187544
2015-03-09T08:01:07.134Z,186556
2015-03-09T08:01:17.665Z,186264
2015-03-09T08:01:28.227Z,186625
2015-03-09T08:01:38.759Z,187577
2015-03-09T08:01:49.371Z,188881
2015-03-09T08:01:59.965Z,190361
2015-03-09T08:02:10.512Z,191838
2015-03-09T08:02:21.090Z,193307
2015-03-09T08:02:31.668Z,194822
2015-03-09T08:02:42.264Z,196405
2015-03-09T08:02:52.764Z,197842
2015-03-09T08:03:03.326Z,199453
2015-03-09T08:03:13.967Z,201147
2015-03-09T08:03:24.545Z,203001
2015-03-09T08:03:35.123Z,204841
2015-03-09T08:03:45.610Z,206097
2015-03-09T08:03:56.157Z,206897
2015-03-09T08:04:06.735Z,207433
2015-03-09T08:04:17.360Z,208049
2015-03-09T08:04:27.907Z,208359
2015-03-09T08:04:38.454Z,208360
2015-03-09T08:04:49.002Z,208370
2015-03-09T08:04:59.580Z,208571
2015-03-09T08:05:10.143Z,208947
2015-03-09T08:05:20.736Z,209577
2015-03-09T08:05:31.299Z,210306
2015-03-09T08:05:41.971Z,210870
2015-03-09T08:05:52.568Z,211365
2015-03-09T08:06:03.177Z,211785
2015-03-09T08:06:13.802Z,212043
2015-03-09T08:06:24.364Z,212245
2015-03-09T08:06:34.911Z,212240
2015-03-09T08:06:45.460Z,212254
2015-03-09T08:06:56.007Z,262054
2015-03-09T08:07:06.554Z,262082
2015-03-09T08:07:17.116Z,262069
2015-03-09T08:07:27.710Z,262056
2015-03-09T08:07:39.007Z,262061
2015-03-09T08:07:49.587Z,262088
2015-03-09T08:08:00.181Z,262139
2015-03-09T08:08:10.728Z,71
2015-03-09T08:08:21.259Z,165
2015-03-09T08:08:31.743Z,267
2015-03-09T08:08:42.243Z,389
2015-03-09T08:08:52.762Z,534
2015-03-09T08:09:03.293Z,669
2015-03-09T08:09:13.809Z,837
2015-03-09T08:09:24.356Z,1060
2015-03-09T08:09:35.231Z,1270
2015-03-09T08:09:45.827Z,1431
2015-03-09T08:09:56.389Z,1565
2015-03-09T08:10:06.936Z,1672
2015-03-09T08:10:17.483Z,1744
2015-03-09T08:10:28.045Z,1764
2015-03-09T08:10:38.561Z,1722
2015-03-09T08:10:49.095Z,1560
2015-03-09T08:10:59.611Z,1274
2015-03-09T08:11:10.142Z,974
2015-03-09T08:11:20.626Z,794
2015-03-09T08:11:31.158Z,699
2015-03-09T08:11:41.736Z,594
2015-03-09T08:11:52.253Z,532
2015-03-09T08:12:02.738Z,567
2015-03-09T08:12:13.253Z,683
2015-03-09T08:12:23.785Z,845
2015-03-09T08:12:34.363Z,1068
2015-03-09T08:12:44.910Z,1321
2015-03-09T08:12:55.505Z,1574
2015-03-09T08:13:05.974Z,1807
2015-03-09T08:13:16.552Z,2015
2015-03-09T08:13:27.068Z,2159
2015-03-09T08:13:38.068Z,2231
2015-03-09T08:13:48.601Z,2263
2015-03-09T08:13:59.195Z,2247
2015-03-09T08:14:10.382Z,2167
2015-03-09T08:14:20.898Z,2077
2015-03-09T08:14:31.445Z,1975
2015-03-09T08:14:42.304Z,1921
2015-03-09T08:14:52.854Z,1864
2015-03-09T08:15:03.370Z,1860
2015-03-09T08:15:13.932Z,1861
2015-03-09T08:15:24.495Z,1857
2015-03-09T08:15:35.026Z,1846
2015-03-09T08:15:45.557Z,1843
2015-03-09T08:15:56.106Z,1813
2015-03-09T08:16:06.684Z,1786
2015-03-09T08:16:17.262Z,1803
2015-03-09T08:16:27.809Z,1852
2015-03-09T08:16:38.481Z,1910
2015-03-09T08:16:49.014Z,1932
2015-03-09T08:16:59.655Z,1913
2015-03-09T08:17:10.280Z,1873
2015-03-09T08:17:20.921Z,1835
2015-03-09T08:17:31.608Z,1869
2015-03-09T08:17:42.889Z,1946
2015-03-09T08:17:53.438Z,2013
2015-03-09T08:18:03.985Z,2089
2015-03-09T08:18:14.610Z,2207
2015-03-09T08:18:25.126Z,2366
2015-03-09T08:18:35.657Z,2554
2015-03-09T08:18:46.173Z,2717
2015-03-09T08:18:56.691Z,2830
2015-03-09T08:19:07.316Z,2923
2015-03-09T08:19:17.879Z,3040
2015-03-09T08:19:28.457Z,3209
2015-03-09T08:19:39.113Z,3476
2015-03-09T08:19:49.632Z,3697
2015-03-09T08:20:00.179Z,3859
2015-03-09T08:20:10.710Z,3974
2015-03-09T08:20:21.272Z,4107
2015-03-09T08:20:31.851Z,4595
2015-03-09T08:20:42.538Z,5211
2015-03-09T08:20:53.134Z,5944
2015-03-09T08:21:03.665Z,6725
2015-03-09T08:21:14.274Z,7331
2015-03-09T08:21:24.821Z,7709
2015-03-09T08:21:35.509Z,7863
2015-03-09T08:21:46.040Z,7710
2015-03-09T08:21:56.558Z,7277
2015-03-09T08:22:07.105Z,6636
2015-03-09T08:22:17.683Z,6015
2015-03-09T08:22:28.198Z,5545
2015-03-09T08:22:38.730Z,5236
2015-03-09T08:22:49.276Z,4961
2015-03-09T08:22:59.810Z,4747
2015-03-09T08:23:10.357Z,4417
2015-03-09T08:23:20.919Z,4171
2015-03-09T08:23:31.528Z,4014
2015-03-09T08:23:42.185Z,3859
2015-03-09T08:23:52.735Z,3762
2015-03-09T08:24:03.235Z,3701
2015-03-09T08:24:13.797Z,3606
2015-03-09T08:24:24.344Z,3511
2015-03-09T08:24:34.891Z,3424
2015-03-09T08:24:45.406Z,3313
2015-03-09T08:24:55.940Z,3190
2015-03-09T08:25:06.487Z,3029
2015-03-09T08:25:17.033Z,2809
2015-03-09T08:25:27.596Z,2542
2015-03-09T08:25:38.940Z,2230
2015-03-09T08:25:49.471Z,2043
2015-03-09T08:26:00.035Z,2140
2015-03-09T08:26:10.567Z,2462
2015-03-09T08:26:21.114Z,2787
2015-03-09T08:26:31.707Z,3031
2015-03-09T08:26:42.285Z,3205
2015-03-09T08:26:52.882Z,3341
2015-03-09T08:27:03.476Z,3513
2015-03-09T08:27:14.742Z,3742
2015-03-09T08:27:25.445Z,3980
2015-03-09T08:28:35.509Z,4457
2015-03-09T08:28:46.040Z,4016
2015-03-09T08:28:56.605Z,3978
2015-03-09T08:29:07.121Z,4030
2015-03-09T08:29:17.667Z,4364
2015-03-09T08:29:28.214Z,4791
2015-03-09T08:29:38.792Z,4965
2015-03-09T08:29:49.308Z,4794
2015-03-09T08:29:59.888Z,4878
2015-03-09T08:30:10.419Z,5626
2015-03-09T08:30:20.951Z,6570
2015-03-09T08:30:31.466Z,7597
2015-03-09T08:30:42.029Z,8884
2015-03-09T08:30:52.591Z,10080
2015-03-09T08:31:03.172Z,11199
2015-03-09T08:31:13.751Z,12205
2015-03-09T08:31:25.047Z,209469
2015-03-09T08:31:36.188Z,210310
2015-03-09T08:31:46.813Z,211034
2015-03-09T08:31:57.503Z,211608
2015-03-09T08:32:08.737Z,212129
2015-03-09T08:32:19.799Z,212530
2015-03-09T08:32:30.393Z,212819
2015-03-09T08:32:40.987Z,212876
2015-03-09T08:32:57.990Z,212561
2015-03-09T08:33:08.615Z,212244
2015-03-09T08:33:19.209Z,211855
2015-03-09T08:33:29.677Z,211572
2015-03-09T08:33:40.334Z,211541
2015-03-09T08:33:50.927Z,211751
2015-03-09T08:34:03.383Z,212133
2015-03-09T08:34:17.039Z,212661
2015-03-09T08:34:28.164Z,213135
2015-03-09T08:34:38.742Z,213647
2015-03-09T08:34:49.445Z,213962
2015-03-09T08:35:06.416Z,212713
2015-03-09T08:35:17.025Z,212065
2015-03-09T08:35:27.619Z,213464
2015-03-09T08:35:38.775Z,213887
2015-03-09T08:35:49.463Z,213452
2015-03-09T08:36:00.763Z,212906
2015-03-09T08:36:11.341Z,212571
2015-03-09T08:36:21.934Z,212548
2015-03-09T08:36:32.559Z,212844
2015-03-09T08:36:43.138Z,213222
2015-03-09T08:36:53.700Z,213503
2015-03-09T08:37:04.265Z,213755
2015-03-09T08:37:14.811Z,213987
2015-03-09T08:37:25.358Z,214296
2015-03-09T08:37:36.499Z,214655
2015-03-09T08:37:47.140Z,214984
2015-03-09T08:37:57.657Z,215352
2015-03-09T08:38:08.267Z,215659
2015-03-09T08:38:18.876Z,215910
2015-03-09T08:38:29.501Z,216107
2015-03-09T08:38:40.126Z,216353
2015-03-09T08:38:50.673Z,216795
2015-03-09T08:39:01.253Z,217186
2015-03-09T08:39:11.784Z,217576
2015-03-09T08:39:22.347Z,217887
2015-03-09T08:39:32.894Z,218071
2015-03-09T08:39:43.456Z,218168
2015-03-09T08:39:54.034Z,218198
2015-03-09T08:40:04.584Z,218035
2015-03-09T08:40:15.178Z,217688
2015-03-09T08:40:25.725Z,217333
2015-03-09T08:40:36.287Z,217186
2015-03-09T08:40:46.850Z,217317
2015-03-09T08:40:57.397Z,217504
2015-03-09T08:41:08.024Z,217553
2015-03-09T08:41:18.586Z,217568
2015-03-09T08:41:29.164Z,217660
2015-03-09T08:41:39.836Z,217913
2015-03-09T08:41:50.492Z,218376
2015-03-09T08:42:01.072Z,218847
2015-03-09T08:42:11.635Z,219047
2015-03-09T08:42:22.197Z,219036
2015-03-09T08:42:32.838Z,219256
2015-03-09T08:42:43.963Z,219707
2015-03-09T08:42:54.588Z,220064
2015-03-09T08:43:05.185Z,220266
2015-03-09T08:43:15.779Z,220248
2015-03-09T08:43:26.357Z,220023
2015-03-09T08:43:36.950Z,219820
2015-03-09T08:43:47.513Z,219803
2015-03-09T08:43:58.091Z,219991
2015-03-09T08:44:08.718Z,220325
2015-03-09T08:44:19.312Z,220603
2015-03-09T08:44:29.906Z,220604
2015-03-09T08:44:40.452Z,220529
2015-03-09T08:44:50.999Z,220590
2015-03-09T08:45:01.564Z,220972
2015-03-09T08:45:12.158Z,221392
2015-03-09T08:45:22.783Z,221735
2015-03-09T08:45:33.361Z,222317
2015-03-09T08:45:43.954Z,223345
2015-03-09T08:45:54.564Z,224731
2015-03-09T08:46:05.160Z,226361
2015-03-09T08:46:15.706Z,228507
2015-03-09T08:46:26.316Z,230970
2015-03-09T08:46:36.925Z,94653
2015-03-09T08:46:47.488Z,101284
2015-03-09T08:46:57.972Z,107930
2015-03-09T08:47:08.569Z,114777
2015-03-09T08:47:19.147Z,251702
2015-03-09T08:47:29.741Z,259355
2015-03-09T08:47:43.225Z,801
2015-03-09T08:47:53.803Z,1531
2015-03-09T08:48:04.305Z,4064
2015-03-09T08:48:14.868Z,6573
2015-03-09T08:48:25.399Z,8610
2015-03-09T08:48:35.961Z,9929
2015-03-09T08:48:46.540Z,10161
2015-03-09T08:48:57.086Z,9514
2015-03-09T08:49:07.652Z,7814
2015-03-09T08:49:18.230Z,5748
2015-03-09T08:49:28.793Z,3698
2015-03-09T08:49:39.386Z,1744
2015-03-09T08:49:49.949Z,955
2015-03-09T08:50:00.527Z,438
2015-03-09T08:50:11.060Z,166
2015-03-09T08:50:21.576Z,83
2015-03-09T08:50:32.123Z,174
2015-03-09T08:50:42.607Z,179
2015-03-09T08:50:53.107Z,31
2015-03-09T08:51:03.734Z,261652
2015-03-09T08:51:14.297Z,120596
2015-03-09T08:51:24.875Z,114308
2015-03-09T08:51:36.047Z,109874
2015-03-09T08:51:46.625Z,106415
2015-03-09T08:51:57.125Z,28
2015-03-09T08:52:07.675Z,261926
2015-03-09T08:52:18.237Z,261855
2015-03-09T08:52:29.487Z,261936
2015-03-09T08:52:39.940Z,60
2015-03-09T08:52:50.425Z,357
2015-03-09T08:53:00.956Z,355
2015-03-09T08:53:11.519Z,262130
2015-03-09T08:53:22.176Z,261591
2015-03-09T08:53:32.801Z,261066
2015-03-09T08:53:43.410Z,260739
2015-03-09T08:53:54.004Z,260563
2015-03-09T08:54:04.522Z,260451
2015-03-09T08:54:15.147Z,260396
2015-03-09T08:54:25.710Z,260346
2015-03-09T08:54:36.272Z,260247
2015-03-09T08:54:46.850Z,260082
2015-03-09T08:54:57.429Z,259976
2015-03-09T08:55:08.588Z,259999
2015-03-09T08:55:19.057Z,259906
2015-03-09T08:55:29.635Z,259809
2015-03-09T08:55:40.572Z,259983
2015-03-09T08:55:51.119Z,260347
2015-03-09T08:56:01.728Z,260691
2015-03-09T08:56:12.355Z,260997
2015-03-09T08:56:23.059Z,261130
2015-03-09T08:56:33.605Z,261116
2015-03-09T08:56:44.090Z,261241
2015-03-09T08:56:54.684Z,261356
2015-03-09T08:57:05.264Z,261361
2015-03-09T08:57:15.889Z,261484
2015-03-09T08:57:26.482Z,261806
2015-03-09T08:57:37.014Z,29
2015-03-09T08:57:47.545Z,105866
2015-03-09T08:57:58.154Z,107694
2015-03-09T08:58:08.719Z,110785
2015-03-09T08:58:19.281Z,114529
2015-03-09T08:58:29.875Z,117711
2015-03-09T08:58:40.453Z,120023
2015-03-09T08:58:51.000Z,121748
2015-03-09T08:59:01.547Z,253318
2015-03-09T08:59:12.097Z,255636
2015-03-09T08:59:22.675Z,257714
2015-03-09T08:59:33.237Z,259479
2015-03-09T08:59:43.722Z,1
2015-03-09T08:59:54.237Z,240
2015-03-09T09:00:04.784Z,510
2015-03-09T09:00:15.333Z,821
2015-03-09T09:00:26.489Z,1238
2015-03-09T09:00:37.130Z,1856
2015-03-09T09:00:47.739Z,1357
2015-03-09T09:00:58.193Z,975
2015-03-09T09:01:08.757Z,871
2015-03-09T09:01:19.288Z,837
2015-03-09T09:01:29.820Z,719
2015-03-09T09:01:40.429Z,413
2015-03-09T09:01:50.929Z,60
2015-03-09T09:02:01.491Z,262111
2015-03-09T09:02:12.087Z,262114
2015-03-09T09:02:22.572Z,262056
2015-03-09T09:02:33.165Z,261991
2015-03-09T09:02:43.728Z,261840
2015-03-09T09:02:54.275Z,261704
2015-03-09T09:03:04.775Z,261577
2015-03-09T09:03:15.387Z,261310
2015-03-09T09:03:26.043Z,121737
2015-03-09T09:03:36.590Z,118611
2015-03-09T09:03:47.137Z,114284
2015-03-09T09:03:57.700Z,110124
2015-03-09T09:04:08.373Z,108580
2015-03-09T09:04:18.952Z,111135
2015-03-09T09:04:29.514Z,113406
2015-03-09T09:04:40.061Z,112913
2015-03-09T09:04:50.655Z,111211
2015-03-09T09:05:01.202Z,550
2015-03-09T09:05:11.783Z,339
2015-03-09T09:05:22.220Z,452
2015-03-09T09:05:32.798Z,110768
2015-03-09T09:05:43.361Z,113380
2015-03-09T09:05:53.955Z,113720
2015-03-09T09:06:04.595Z,111271
2015-03-09T09:06:15.144Z,110529
2015-03-09T09:06:25.707Z,113163
2015-03-09T09:06:36.300Z,117282
2015-03-09T09:06:46.863Z,120190
2015-03-09T09:06:57.441Z,120348
2015-03-09T09:07:07.925Z,117960
2015-03-09T09:07:18.396Z,115620
2015-03-09T09:07:29.037Z,113781
2015-03-09T09:07:39.630Z,112113
2015-03-09T09:07:50.146Z,112878
2015-03-09T09:08:00.771Z,115130
2015-03-09T09:08:11.445Z,117591
2015-03-09T09:08:22.086Z,119634
2015-03-09T09:08:32.711Z,120941
2015-03-09T09:08:43.320Z,120912
2015-03-09T09:08:53.882Z,120582
2015-03-09T09:09:04.461Z,121000
2015-03-09T09:09:15.026Z,122587
2015-03-09T09:09:25.635Z,254961
2015-03-09T09:09:36.198Z,256454
2015-03-09T09:09:46.698Z,257293
2015-03-09T09:09:57.245Z,257376
2015-03-09T09:10:07.807Z,255968
2015-03-09T09:10:18.357Z,122028
2015-03-09T09:10:29.045Z,118564
2015-03-09T09:10:39.638Z,117306
2015-03-09T09:10:50.279Z,117648
2015-03-09T09:11:00.842Z,118101
2015-03-09T09:11:11.422Z,119561
2015-03-09T09:11:21.984Z,123501
2015-03-09T09:11:32.562Z,256651
2015-03-09T09:11:43.140Z,257450
2015-03-09T09:11:53.703Z,257263
2015-03-09T09:12:04.765Z,256358
2015-03-09T09:12:15.221Z,124545
2015-03-09T09:12:25.799Z,124119
2015-03-09T09:12:36.346Z,124944
2015-03-09T09:12:46.892Z,256109
2015-03-09T09:12:57.471Z,256343
2015-03-09T09:13:08.017Z,256441
2015-03-09T09:13:18.566Z,257261
2015-03-09T09:13:29.113Z,255966
2015-03-09T09:13:40.066Z,122041
2015-03-09T09:13:50.613Z,118198
2015-03-09T09:14:01.176Z,114319
2015-03-09T09:14:11.723Z,782
2015-03-09T09:14:22.256Z,444
2015-03-09T09:14:32.771Z,180
2015-03-09T09:14:43.240Z,16
2015-03-09T09:14:53.834Z,262002
2015-03-09T09:15:04.443Z,261867
2015-03-09T09:15:15.024Z,261756
2015-03-09T09:15:25.649Z,261672
2015-03-09T09:15:36.228Z,261676
2015-03-09T09:15:46.790Z,261760
2015-03-09T09:15:57.353Z,261817
2015-03-09T09:16:07.837Z,261878
2015-03-09T09:16:18.355Z,14
2015-03-09T09:16:28.855Z,582
2015-03-09T09:16:39.370Z,993
2015-03-09T09:16:49.933Z,1079
2015-03-09T09:17:00.464Z,1089
2015-03-09T09:17:10.933Z,1375
2015-03-09T09:17:21.841Z,121026
2015-03-09T09:17:32.419Z,125910
2015-03-09T09:17:42.966Z,19
2015-03-09T09:17:53.450Z,606
2015-03-09T09:18:03.997Z,1388
2015-03-09T09:18:14.575Z,1422
2015-03-09T09:18:25.110Z,1318
2015-03-09T09:18:35.672Z,1941
2015-03-09T09:18:46.860Z,2710
2015-03-09T09:18:57.422Z,2668
2015-03-09T09:19:08.000Z,1731
2015-03-09T09:19:18.518Z,904
2015-03-09T09:19:29.018Z,600
2015-03-09T09:19:39.533Z,427
2015-03-09T09:19:50.065Z,156
2015-03-09T09:20:00.643Z,262114
2015-03-09T09:20:11.580Z,262107
2015-03-09T09:20:22.098Z,28
2015-03-09T09:20:32.660Z,33
2015-03-09T09:20:43.160Z,36
2015-03-09T09:20:53.660Z,5
2015-03-09T09:21:04.254Z,261972
2015-03-09T09:21:14.801Z,127880
2015-03-09T09:21:25.381Z,126542
2015-03-09T09:21:36.819Z,126304
2015-03-09T09:21:47.475Z,125800
2015-03-09T09:21:58.037Z,124660
2015-03-09T09:22:08.553Z,123900
2015-03-09T09:22:19.120Z,123902
2015-03-09T09:22:29.682Z,124235
2015-03-09T09:22:40.245Z,124082
2015-03-09T09:22:50.854Z,123589
2015-03-09T09:23:01.526Z,123446
2015-03-09T09:23:12.088Z,124063
2015-03-09T09:23:22.653Z,125129
2015-03-09T09:23:33.231Z,126982
2015-03-09T09:23:43.793Z,259713
2015-03-09T09:23:54.215Z,14
2015-03-09T09:24:04.762Z,209
2015-03-09T09:24:15.293Z,323
2015-03-09T09:24:25.842Z,419
2015-03-09T09:24:36.374Z,556
2015-03-09T09:24:46.874Z,592
2015-03-09T09:24:57.420Z,452
2015-03-09T09:25:08.905Z,440
2015-03-09T09:25:19.501Z,465
2015-03-09T09:25:30.079Z,464
2015-03-09T09:25:40.672Z,515
2015-03-09T09:25:51.126Z,496
2015-03-09T09:26:02.063Z,254
2015-03-09T09:26:12.610Z,126802
2015-03-09T09:26:23.174Z,120344
2015-03-09T09:26:33.737Z,124168
2015-03-09T09:26:44.315Z,261386
2015-03-09T09:26:54.815Z,237
2015-03-09T09:27:05.299Z,291
2015-03-09T09:27:15.831Z,120
2015-03-09T09:27:26.317Z,261927
2015-03-09T09:27:36.911Z,261850
2015-03-09T09:27:47.458Z,261955
2015-03-09T09:27:57.958Z,37
2015-03-09T09:28:08.473Z,378
2015-03-09T09:28:19.039Z,1037
2015-03-09T09:28:29.586Z,2288
2015-03-09T09:28:40.117Z,3311
2015-03-09T09:28:50.664Z,4331
2015-03-09T09:29:01.289Z,5041
2015-03-09T09:29:11.851Z,5211
2015-03-09T09:29:22.447Z,4836
2015-03-09T09:29:33.010Z,3939
2015-03-09T09:29:43.478Z,3076
2015-03-09T09:29:54.072Z,2054
2015-03-09T09:30:04.588Z,858
2015-03-09T09:30:15.166Z,451
2015-03-09T09:30:25.669Z,117
2015-03-09T09:30:36.200Z,262035
2015-03-09T09:30:46.763Z,261898
2015-03-09T09:30:57.325Z,261825
2015-03-09T09:31:07.903Z,261914
2015-03-09T09:31:18.434Z,22
2015-03-09T09:31:28.952Z,394
2015-03-09T09:31:39.561Z,1166
2015-03-09T09:31:50.108Z,2496
2015-03-09T09:32:00.671Z,3646
2015-03-09T09:32:11.218Z,4915
2015-03-09T09:32:21.767Z,5633
2015-03-09T09:32:32.423Z,5628
2015-03-09T09:32:43.423Z,4961
2015-03-09T09:32:53.954Z,3788
2015-03-09T09:33:04.595Z,2635
2015-03-09T09:33:15.126Z,1428
2015-03-09T09:33:25.628Z,584
2015-03-09T09:33:36.175Z,321
2015-03-09T09:33:46.690Z,138
2015-03-09T09:33:57.222Z,85
2015-03-09T09:34:07.753Z,174
2015-03-09T09:34:18.237Z,384
2015-03-09T09:34:28.771Z,723
2015-03-09T09:34:39.302Z,1892
2015-03-09T09:34:49.849Z,3148
2015-03-09T09:35:00.380Z,4650
2015-03-09T09:35:10.927Z,6253
2015-03-09T09:35:21.508Z,7981
2015-03-09T09:35:32.102Z,9856
2015-03-09T09:35:42.774Z,11711
2015-03-09T09:35:53.367Z,13316
2015-03-09T09:36:03.945Z,14535
2015-03-09T09:36:14.508Z,15374
2015-03-09T09:36:25.058Z,15725
2015-03-09T09:36:35.605Z,15927
2015-03-09T09:36:46.152Z,16029
2015-03-09T09:36:56.620Z,16147
2015-03-09T09:37:07.167Z,16411
2015-03-09T09:37:17.714Z,16683
2015-03-09T09:37:28.247Z,16614
2015-03-09T09:37:38.857Z,16382
2015-03-09T09:37:49.435Z,16319
2015-03-09T09:37:59.966Z,16301
2015-03-09T09:38:10.529Z,16744
2015-03-09T09:38:21.047Z,17870
2015-03-09T09:38:31.625Z,19085
2015-03-09T09:38:42.172Z,19709
2015-03-09T09:38:52.719Z,19955
2015-03-09T09:39:03.282Z,20384
2015-03-09T09:39:13.782Z,21533
2015-03-09T09:39:24.362Z,1108
2015-03-09T09:39:34.955Z,1372
2015-03-09T09:39:45.565Z,1650
2015-03-09T09:39:56.752Z,1980
2015-03-09T09:40:07.299Z,2232
2015-03-09T09:40:17.830Z,2423
2015-03-09T09:40:29.098Z,2565
2015-03-09T09:40:39.661Z,2656
2015-03-09T09:40:50.192Z,2638
2015-03-09T09:41:00.770Z,2547
2015-03-09T09:41:11.317Z,2377
2015-03-09T09:41:21.834Z,2077
2015-03-09T09:41:32.459Z,1703
2015-03-09T09:41:43.006Z,1361
2015-03-09T09:41:53.538Z,22236
2015-03-09T09:42:04.053Z,20389
2015-03-09T09:42:14.647Z,18973
2015-03-09T09:42:25.258Z,17847
2015-03-09T09:42:35.821Z,17059
2015-03-09T09:42:46.383Z,16487
2015-03-09T09:42:56.946Z,15933
2015-03-09T09:43:07.524Z,15400
2015-03-09T09:43:18.680Z,14808
2015-03-09T09:43:29.213Z,14174
2015-03-09T09:43:40.292Z,13396
2015-03-09T09:43:50.823Z,12584
2015-03-09T09:44:01.370Z,11476
2015-03-09T09:44:12.276Z,10009
2015-03-09T09:44:22.857Z,8506
2015-03-09T09:44:33.388Z,6926
2015-03-09T09:44:44.029Z,5247
2015-03-09T09:44:54.591Z,3313
2015-03-09T09:45:05.248Z,1825
2015-03-09T09:45:15.779Z,587
2015-03-09T09:45:26.312Z,265
2015-03-09T09:45:36.890Z,262075
2015-03-09T09:45:47.500Z,261662
2015-03-09T09:45:58.062Z,122476
2015-03-09T09:46:08.609Z,1540
2015-03-09T09:46:19.125Z,1160
2015-03-09T09:46:29.627Z,727
2015-03-09T09:46:40.174Z,305
2015-03-09T09:46:50.783Z,262057
2015-03-09T09:47:01.361Z,261641
2015-03-09T09:47:11.955Z,261226
2015-03-09T09:47:22.520Z,260880
2015-03-09T09:47:33.145Z,260612
2015-03-09T09:47:44.145Z,260427
2015-03-09T09:47:54.739Z,260323
2015-03-09T09:48:05.317Z,260321
2015-03-09T09:48:16.005Z,260413
2015-03-09T09:48:26.617Z,260549
2015-03-09T09:48:37.242Z,260743
2015-03-09T09:48:47.805Z,260967
2015-03-09T09:48:58.430Z,261221
2015-03-09T09:49:08.992Z,261451
2015-03-09T09:49:19.539Z,261647
2015-03-09T09:49:30.102Z,261861
2015-03-09T09:49:40.712Z,261879
2015-03-09T09:49:51.274Z,261927
2015-03-09T09:50:01.852Z,261990
2015-03-09T09:50:12.415Z,262036
2015-03-09T09:50:22.902Z,261896
2015-03-09T09:50:33.480Z,261760
2015-03-09T09:50:44.074Z,261505
2015-03-09T09:50:54.621Z,261066
2015-03-09T09:51:05.215Z,260730
2015-03-09T09:51:15.793Z,260444
2015-03-09T09:51:26.389Z,260392
2015-03-09T09:51:36.982Z,260233
2015-03-09T09:51:47.561Z,259916
2015-03-09T09:51:58.154Z,259590
2015-03-09T09:52:08.732Z,259295
2015-03-09T09:52:19.342Z,259198
2015-03-09T09:52:29.984Z,259287
2015-03-09T09:52:40.547Z,259392
2015-03-09T09:52:51.172Z,259570
2015-03-09T09:53:01.703Z,259696
2015-03-09T09:53:12.281Z,259963
2015-03-09T09:53:22.828Z,260096
2015-03-09T09:53:33.456Z,260354
2015-03-09T09:53:44.441Z,260679
2015-03-09T09:53:54.909Z,260974
2015-03-09T09:54:05.456Z,261205
2015-03-09T09:54:16.097Z,261331
2015-03-09T09:54:26.661Z,261543
2015-03-09T09:54:37.255Z,261661
2015-03-09T09:54:47.880Z,261747
2015-03-09T09:54:58.489Z,261725
2015-03-09T09:55:09.052Z,261607
2015-03-09T09:55:19.630Z,261484
2015-03-09T09:55:30.179Z,261329
2015-03-09T09:55:40.757Z,261241
2015-03-09T09:55:51.366Z,261125
2015-03-09T09:56:01.976Z,260969
2015-03-09T09:56:12.570Z,260798
2015-03-09T09:56:23.116Z,260623
2015-03-09T09:56:33.698Z,260382
2015-03-09T09:56:44.307Z,260076
2015-03-09T09:56:54.854Z,259727
2015-03-09T09:57:05.416Z,259336
2015-03-09T09:57:16.104Z,258928
2015-03-09T09:57:26.653Z,258467
2015-03-09T09:57:37.231Z,258037
2015-03-09T09:57:47.793Z,257568
2015-03-09T09:57:58.387Z,257064
2015-03-09T09:58:08.981Z,256549
2015-03-09T09:58:19.575Z,256191
2015-03-09T09:58:30.109Z,255816
2015-03-09T09:58:40.640Z,22159
2015-03-09T09:58:51.234Z,20258
2015-03-09T09:59:02.265Z,18375
2015-03-09T09:59:12.828Z,17018
2015-03-09T09:59:23.484Z,16258
2015-03-09T09:59:34.142Z,15704
2015-03-09T10:00:44.238Z,13102
2015-03-09T10:00:54.832Z,13123
2015-03-09T10:01:05.488Z,13314
2015-03-09T10:01:16.113Z,13865
2015-03-09T10:01:26.694Z,14646
2015-03-09T10:01:37.272Z,15491
2015-03-09T10:01:47.866Z,16546
2015-03-09T10:01:58.475Z,17250
2015-03-09T10:02:09.147Z,17925
2015-03-09T10:02:19.741Z,18482
2015-03-09T10:02:30.415Z,18946
2015-03-09T10:02:41.118Z,19246
2015-03-09T10:02:51.727Z,19611
2015-03-09T10:03:02.321Z,19696
2015-03-09T10:03:12.946Z,19578
2015-03-09T10:03:25.964Z,19288
2015-03-09T10:03:39.682Z,18900
2015-03-09T10:03:53.448Z,18760
2015-03-09T10:04:06.510Z,18642
2015-03-09T10:04:17.635Z,18493
2015-03-09T10:04:28.185Z,18545
2015-03-09T10:04:39.201Z,18597
2015-03-09T10:04:49.763Z,18402
2015-03-09T10:05:00.342Z,17881
2015-03-09T10:05:10.904Z,17757
2015-03-09T10:05:21.451Z,17637
2015-03-09T10:05:31.999Z,17860
2015-03-09T10:06:42.080Z,18611
2015-03-09T10:06:52.642Z,19037
2015-03-09T10:07:03.236Z,19569
2015-03-09T10:07:13.861Z,20183
2015-03-09T10:07:24.471Z,20975
2015-03-09T10:07:35.066Z,21553
2015-03-09T10:07:45.707Z,22686